Time;durP1;ratioP1;P1;durP2;ratioP2;P2;SDS_P1;SDS_P2;PMS_P1;PMS_P2;Temp;Humidity;BMP_temperature;BMP_pressure;BME280_temperature;BME280_humidity;BME280_pressure;Samples;Min_cycle;Max_cycle;Signal;HPM_P1;HPM_P2
2022/04/22 00:00:25;;;;;;;15.15;9.73;;;10.80;99.90;;;;;;5125769;27;20660;-80
2022/04/22 00:02:51;;;;;;;13.93;8.50;;;10.70;99.90;;;;;;5111876;27;20504;-80
2022/04/22 00:05:17;;;;;;;13.63;9.50;;;10.70;99.90;;;;;;5094511;27;20054;-80
2022/04/22 00:07:43;;;;;;;15.07;9.68;;;10.60;99.90;;;;;;5129474;27;20035;-80
2022/04/22 00:10:11;;;;;;;12.00;9.15;;;10.60;99.90;;;;;;5110576;27;20065;-80
2022/04/22 00:12:44;;;;;;;11.73;9.07;;;10.50;99.90;;;;;;5133030;27;20454;-81
2022/04/22 00:15:13;;;;;;;13.52;10.55;;;10.50;99.90;;;;;;5131583;27;20064;-80
2022/04/22 00:17:41;;;;;;;14.80;9.52;;;10.50;99.90;;;;;;5093690;27;20487;-80
2022/04/22 00:20:12;;;;;;;12.90;9.25;;;10.50;99.90;;;;;;5105181;27;20086;-80
2022/04/22 00:22:42;;;;;;;15.90;10.35;;;10.40;99.90;;;;;;5108437;27;20051;-80
2022/04/22 00:25:09;;;;;;;13.38;9.48;;;10.40;99.90;;;;;;5110127;27;20071;-79
2022/04/22 00:27:37;;;;;;;14.90;10.32;;;10.30;99.90;;;;;;5110231;27;20408;-80
2022/04/22 00:30:09;;;;;;;14.25;9.60;;;10.40;99.90;;;;;;5127988;27;20042;-80
2022/04/22 00:32:35;;;;;;;16.05;9.98;;;10.30;99.90;;;;;;5108806;27;20077;-80
2022/04/22 00:35:09;;;;;;;14.68;9.77;;;10.30;99.90;;;;;;5125718;27;20098;-80
2022/04/22 00:37:35;;;;;;;14.80;10.68;;;10.30;99.90;;;;;;5127326;27;20039;-81
2022/04/22 00:40:02;;;;;;;12.98;9.95;;;10.20;99.90;;;;;;5145873;27;20048;-80
2022/04/22 00:42:29;;;;;;;15.63;11.00;;;10.20;99.90;;;;;;5120661;27;20043;-80
2022/04/22 00:44:57;;;;;;;14.30;10.95;;;10.20;99.90;;;;;;5106853;27;20054;-81
2022/04/22 00:47:23;;;;;;;17.25;10.85;;;10.10;99.90;;;;;;5104750;27;20070;-80
2022/04/22 00:49:49;;;;;;;16.00;11.07;;;10.10;99.90;;;;;;5109261;27;20082;-80
2022/04/22 00:52:16;;;;;;;19.33;11.57;;;10.10;99.90;;;;;;5125443;27;20069;-80
2022/04/22 00:54:43;;;;;;;14.20;10.88;;;10.00;99.90;;;;;;5109585;27;20081;-81
2022/04/22 00:57:09;;;;;;;14.80;11.13;;;10.00;99.90;;;;;;5094256;27;20467;-80
2022/04/22 00:59:37;;;;;;;16.90;12.00;;;9.90;99.90;;;;;;5108634;27;20035;-81
2022/04/22 01:02:05;;;;;;;15.48;11.40;;;9.90;99.90;;;;;;5107499;27;20130;-80
2022/04/22 01:10:00;;;;;;;20.20;12.65;;;9.80;99.90;;;;;;5126309;27;20058;-80
2022/04/22 01:12:30;;;;;;;16.42;12.43;;;9.80;99.90;;;;;;5126813;27;20042;-81
2022/04/22 01:14:56;;;;;;;18.13;13.02;;;9.80;99.90;;;;;;5110320;27;20218;-81
2022/04/22 01:17:22;;;;;;;19.55;13.00;;;9.80;99.90;;;;;;5106524;27;20430;-81
2022/04/22 01:19:48;;;;;;;18.00;13.02;;;9.80;99.90;;;;;;5089929;27;20195;-81
2022/04/22 01:22:14;;;;;;;18.23;12.32;;;9.80;99.90;;;;;;5108896;27;20540;-79
2022/04/22 01:24:40;;;;;;;18.13;13.88;;;9.70;99.90;;;;;;5107719;27;20047;-81
2022/04/22 01:27:07;;;;;;;19.10;12.57;;;9.60;99.90;;;;;;5093209;27;20387;-81
2022/04/22 01:29:33;;;;;;;18.33;13.07;;;9.60;99.90;;;;;;5125804;27;20046;-81
2022/04/22 01:32:00;;;;;;;17.90;12.75;;;9.60;99.90;;;;;;5109197;27;20050;-81
2022/04/22 01:34:27;;;;;;;16.88;13.52;;;9.50;99.90;;;;;;5123966;27;20050;-79
2022/04/22 01:36:52;;;;;;;17.48;12.80;;;9.50;99.90;;;;;;5125672;27;20204;-80
2022/04/22 01:39:18;;;;;;;18.30;13.35;;;9.50;99.90;;;;;;5090254;27;20404;-80
2022/04/22 01:41:44;;;;;;;17.48;12.93;;;9.40;99.90;;;;;;5125054;27;20039;-80
2022/04/22 01:44:10;;;;;;;18.35;13.77;;;9.40;99.90;;;;;;5093813;27;20050;-80
2022/04/22 01:46:36;;;;;;;18.60;13.02;;;9.30;99.90;;;;;;5144863;27;20045;-81
2022/04/22 01:49:05;;;;;;;18.63;12.95;;;9.30;99.90;;;;;;5110371;27;20114;-80
2022/04/22 01:51:31;;;;;;;20.00;14.52;;;9.30;99.90;;;;;;5089174;27;20047;-80
2022/04/22 01:53:57;;;;;;;21.50;14.35;;;9.20;99.90;;;;;;5126829;27;20046;-80
2022/04/22 01:56:22;;;;;;;17.50;14.20;;;9.20;99.90;;;;;;5127185;27;20074;-79
2022/04/22 01:58:48;;;;;;;16.77;13.85;;;9.10;99.90;;;;;;5107314;27;20516;-81
2022/04/22 02:01:14;;;;;;;17.45;14.05;;;9.10;99.90;;;;;;5109350;27;20042;-79
2022/04/22 02:03:40;;;;;;;17.23;13.52;;;9.10;99.90;;;;;;5092818;27;20115;-80
2022/04/22 02:06:06;;;;;;;19.58;14.05;;;9.00;99.90;;;;;;5111614;27;20042;-80
2022/04/22 02:08:36;;;;;;;18.23;13.65;;;9.00;99.90;;;;;;5110598;27;20126;-80
2022/04/22 02:11:05;;;;;;;;;;;9.00;99.90;;;;;;5111652;27;20134;-80
2022/04/22 02:13:36;;;;;;;17.60;14.02;;;8.90;99.90;;;;;;5132372;27;20664;-79
2022/04/22 02:16:06;;;;;;;19.05;13.65;;;8.90;99.90;;;;;;5118675;27;20057;-80
2022/04/22 02:18:41;;;;;;;19.50;14.63;;;8.90;99.90;;;;;;5113590;27;20053;-79
2022/04/22 02:21:09;;;;;;;21.67;14.80;;;8.90;99.90;;;;;;5110021;27;20107;-80
2022/04/22 02:23:36;;;;;;;19.60;14.48;;;8.80;99.90;;;;;;5119446;27;20464;-80
2022/04/22 02:26:03;;;;;;;19.85;13.82;;;8.80;99.90;;;;;;5113193;27;20535;-80
2022/04/22 02:28:35;;;;;;;21.02;13.73;;;8.80;99.90;;;;;;5076231;27;20051;-80
2022/04/22 02:31:08;;;;;;;21.63;14.05;;;8.80;99.90;;;;;;5094155;27;20043;-80
2022/04/22 02:33:35;;;;;;;16.40;13.55;;;8.80;99.90;;;;;;5093114;27;20144;-79
2022/04/22 02:36:03;;;;;;;19.02;13.93;;;8.70;99.90;;;;;;5103494;27;20043;-81
2022/04/22 02:38:30;;;;;;;17.92;13.27;;;8.70;99.90;;;;;;5113043;27;20118;-79
2022/04/22 02:46:27;;;;;;;17.63;12.38;;;8.70;99.90;;;;;;5147069;27;20047;-80
2022/04/22 02:48:58;;;;;;;19.50;13.40;;;8.70;99.90;;;;;;5095581;27;20042;-78
2022/04/22 02:51:24;;;;;;;14.93;12.82;;;8.60;99.90;;;;;;5145328;27;20616;-80
2022/04/22 02:53:50;;;;;;;18.10;13.68;;;8.70;99.90;;;;;;5106251;27;20039;-79
2022/04/22 02:56:21;;;;;;;15.77;12.32;;;8.60;99.90;;;;;;5111817;27;20050;-79
2022/04/22 02:58:48;;;;;;;21.45;13.23;;;8.60;99.90;;;;;;5123427;27;20046;-80
2022/04/22 03:01:15;;;;;;;17.58;11.85;;;8.60;99.90;;;;;;5091259;27;20568;-79
2022/04/22 03:03:45;;;;;;;17.80;12.93;;;8.50;99.90;;;;;;5111705;27;20482;-79
2022/04/22 03:06:10;;;;;;;17.55;12.98;;;8.50;99.90;;;;;;5113133;27;20042;-81
2022/04/22 03:08:36;;;;;;;15.85;12.25;;;8.40;99.90;;;;;;5129658;27;20070;-78
2022/04/22 03:11:03;;;;;;;19.63;11.88;;;8.40;99.90;;;;;;5111053;27;20046;-80
2022/04/22 03:13:30;;;;;;;14.20;10.75;;;8.40;99.90;;;;;;5095395;27;20629;-79
2022/04/22 03:15:58;;;;;;;13.95;10.63;;;8.40;99.90;;;;;;5112546;27;20053;-80
2022/04/22 03:18:24;;;;;;;14.45;10.50;;;8.40;99.90;;;;;;5111799;27;20476;-79
2022/04/22 03:20:50;;;;;;;14.43;10.20;;;8.30;99.90;;;;;;5110944;27;20131;-79
2022/04/22 03:23:16;;;;;;;14.80;10.65;;;8.30;99.90;;;;;;5110180;27;20047;-78
2022/04/22 03:25:42;;;;;;;13.07;9.90;;;8.30;99.90;;;;;;5111948;27;20081;-79
2022/04/22 03:28:07;;;;;;;11.85;9.35;;;8.30;99.90;;;;;;5125007;27;20043;-80
2022/04/22 03:30:34;;;;;;;10.20;8.65;;;8.30;99.90;;;;;;5111973;27;20466;-80
2022/04/22 03:33:01;;;;;;;13.55;8.77;;;8.30;99.90;;;;;;5112371;27;20118;-78
2022/04/22 03:35:30;;;;;;;13.68;9.75;;;8.30;99.90;;;;;;5094865;27;20397;-80
2022/04/22 03:37:56;;;;;;;11.25;9.00;;;8.20;99.90;;;;;;5144930;27;20673;-79
2022/04/22 03:40:26;;;;;;;12.57;8.52;;;8.20;99.90;;;;;;5094656;27;20357;-79
2022/04/22 03:42:55;;;;;;;11.98;8.38;;;8.20;99.90;;;;;;5093614;27;20361;-81
2022/04/22 03:45:22;;;;;;;11.60;8.18;;;8.10;99.90;;;;;;5110599;27;20047;-80
2022/04/22 03:47:48;;;;;;;9.55;7.97;;;8.10;99.90;;;;;;5074885;27;20051;-80
2022/04/22 03:50:13;;;;;;;11.40;7.97;;;8.10;99.90;;;;;;5126311;27;20402;-81
2022/04/22 03:52:40;;;;;;;12.05;8.15;;;8.10;99.90;;;;;;5075922;27;20756;-80
2022/04/22 03:55:06;;;;;;;10.85;8.07;;;8.10;99.90;;;;;;5093264;27;20047;-80
2022/04/22 04:00:16;;;;;;;12.52;8.52;;;8.00;99.90;;;;;;5124876;27;20054;-81
2022/04/22 04:02:44;;;;;;;9.02;7.28;;;8.00;99.90;;;;;;5111359;27;20069;-80
2022/04/22 04:05:10;;;;;;;11.20;8.48;;;8.00;99.90;;;;;;5130491;27;20107;-81
2022/04/22 04:07:36;;;;;;;11.68;8.18;;;8.00;99.90;;;;;;5095081;27;20050;-80
2022/04/22 04:15:59;;;;;;;10.95;7.68;;;7.90;99.90;;;;;;5102753;27;20054;-81
2022/04/22 04:18:37;;;;;;;12.25;7.90;;;7.90;99.90;;;;;;5107152;27;20567;-81
2022/04/22 04:23:53;;;;;;;10.48;7.07;;;7.80;99.90;;;;;;5094291;27;20051;-80
2022/04/22 04:26:21;;;;;;;11.57;7.65;;;7.80;99.90;;;;;;5091773;27;20159;-81
2022/04/22 04:28:48;;;;;;;11.25;7.95;;;7.80;99.90;;;;;;5101966;27;20669;-80
2022/04/22 04:31:15;;;;;;;10.00;7.35;;;7.80;99.90;;;;;;5118550;27;20057;-80
2022/04/22 04:33:42;;;;;;;12.18;9.30;;;7.80;99.90;;;;;;5090668;27;20111;-80
2022/04/22 04:36:12;;;;;;;10.90;7.45;;;7.70;99.90;;;;;;5112410;27;20039;-80
2022/04/22 04:38:40;;;;;;;12.57;8.80;;;7.70;99.90;;;;;;5146662;27;20047;-80
2022/04/22 04:41:08;;;;;;;11.10;8.05;;;7.70;99.90;;;;;;5095258;27;20291;-80
2022/04/22 04:43:34;;;;;;;10.05;7.90;;;7.70;99.90;;;;;;5110887;27;20051;-80
2022/04/22 04:46:01;;;;;;;11.15;8.52;;;7.70;99.90;;;;;;5106518;28;20085;-80
2022/04/22 04:48:27;;;;;;;8.43;7.40;;;7.60;99.90;;;;;;5091490;27;20057;-80
2022/04/22 04:50:55;;;;;;;8.00;7.20;;;7.60;99.90;;;;;;5106790;27;20039;-80
2022/04/22 04:53:23;;;;;;;12.27;7.72;;;7.60;99.90;;;;;;5126807;27;20147;-80
2022/04/22 04:55:50;;;;;;;11.45;8.18;;;7.70;99.90;;;;;;5098413;27;20050;-81
2022/04/22 04:58:26;;;;;;;10.63;7.45;;;7.70;99.90;;;;;;5122679;27;20046;-80
2022/04/22 05:00:52;;;;;;;11.82;7.93;;;7.70;99.90;;;;;;5122105;27;20101;-81
2022/04/22 05:03:18;;;;;;;11.90;7.45;;;7.70;99.90;;;;;;5108151;27;20042;-81
2022/04/22 05:05:47;;;;;;;10.80;7.65;;;7.70;99.90;;;;;;5074919;27;20564;-81
2022/04/22 05:08:13;;;;;;;10.00;7.45;;;7.70;99.90;;;;;;5092122;27;20058;-80
2022/04/22 05:10:42;;;;;;;10.65;7.43;;;7.70;99.90;;;;;;5074110;27;20459;-82
2022/04/22 05:13:08;;;;;;;10.10;7.45;;;7.70;99.90;;;;;;5105657;27;20035;-79
2022/04/22 05:15:35;;;;;;;10.23;7.28;;;7.70;99.90;;;;;;5106127;27;20070;-78
2022/04/22 05:18:02;;;;;;;10.35;7.45;;;7.80;99.90;;;;;;5090350;27;20158;-80
2022/04/22 05:20:29;;;;;;;9.30;7.18;;;7.80;99.90;;;;;;5122956;27;20830;-80
2022/04/22 05:22:55;;;;;;;10.45;7.35;;;7.80;99.90;;;;;;5087549;27;21957;-81
2022/04/22 05:25:22;;;;;;;9.38;6.90;;;7.90;99.90;;;;;;5104015;27;20047;-80
2022/04/22 05:27:48;;;;;;;7.82;6.13;;;7.90;99.90;;;;;;5123519;27;20047;-77
2022/04/22 05:33:00;;;;;;;10.20;6.75;;;8.00;99.90;;;;;;5131572;27;20317;-80
2022/04/22 05:35:29;;;;;;;12.63;6.80;;;8.00;99.90;;;;;;5099782;27;20051;-80
2022/04/22 05:37:57;;;;;;;13.15;7.15;;;8.20;99.90;;;;;;5101893;27;20042;-80
2022/04/22 05:40:36;;;;;;;8.75;6.28;;;8.20;99.90;;;;;;5104879;27;20050;-78
2022/04/22 05:43:04;;;;;;;10.95;6.28;;;8.20;99.90;;;;;;5118688;27;20515;-81
2022/04/22 05:45:30;;;;;;;8.50;6.38;;;8.30;99.90;;;;;;5139107;27;20043;-80
2022/04/22 05:47:56;;;;;;;10.32;6.60;;;8.30;99.90;;;;;;5136700;27;20043;-78
2022/04/22 05:50:23;;;;;;;9.10;6.20;;;8.30;99.90;;;;;;5145275;27;20105;-78
2022/04/22 05:52:49;;;;;;;9.80;6.60;;;8.40;99.90;;;;;;5124603;27;20066;-77
2022/04/22 05:55:17;;;;;;;10.05;6.57;;;8.40;99.90;;;;;;5130518;27;20473;-76
2022/04/22 05:57:47;;;;;;;10.50;6.50;;;8.40;99.90;;;;;;5126737;27;20520;-78
2022/04/22 06:00:14;;;;;;;;;;;8.50;99.90;;;;;;5129783;27;20248;-78
2022/04/22 06:02:41;;;;;;;12.90;6.65;;;8.50;99.90;;;;;;5110322;27;19923;-78
2022/04/22 06:05:11;;;;;;;8.98;6.88;;;8.50;99.90;;;;;;5095604;27;20043;-79
2022/04/22 06:07:38;;;;;;;;;;;8.50;99.90;;;;;;5111693;27;20442;-74
2022/04/22 06:12:53;;;;;;;11.40;6.95;;;8.60;99.90;;;;;;5144858;27;20050;-76
2022/04/22 06:15:19;;;;;;;9.75;6.75;;;8.60;99.90;;;;;;5093046;27;20047;-77
2022/04/22 06:17:46;;;;;;;8.55;6.90;;;8.70;99.90;;;;;;5095947;27;20046;-78
2022/04/22 06:20:12;;;;;;;9.75;7.03;;;8.70;99.90;;;;;;5103299;28;20082;-77
2022/04/22 06:22:38;;;;;;;9.25;6.43;;;8.80;99.90;;;;;;5081088;27;20502;-79
2022/04/22 06:25:05;;;;;;;11.27;6.53;;;8.80;99.90;;;;;;5127779;27;20122;-78
2022/04/22 06:27:37;;;;;;;9.18;6.63;;;8.90;99.90;;;;;;5117301;27;20040;-78
2022/04/22 06:30:08;;;;;;;8.85;6.18;;;9.00;99.90;;;;;;5123910;27;20443;-78
2022/04/22 06:32:36;;;;;;;8.55;6.30;;;9.00;99.90;;;;;;5103082;28;20120;-77
2022/04/22 06:35:04;;;;;;;7.22;5.80;;;9.10;99.90;;;;;;5103758;27;20495;-80
2022/04/22 06:37:52;;;;;;;9.43;6.38;;;9.10;99.90;;;;;;5109747;27;20517;-78
2022/04/22 06:45:50;;;;;;;9.27;6.00;;;9.40;99.90;;;;;;5121510;27;20051;-76
2022/04/22 06:48:35;;;;;;;7.13;5.53;;;9.50;99.90;;;;;;5122027;27;20546;-78
2022/04/22 06:51:02;;;;;;;8.45;5.95;;;9.60;99.90;;;;;;5085612;27;20063;-77
2022/04/22 06:53:28;;;;;;;7.55;5.35;;;9.60;99.90;;;;;;5089112;28;20039;-76
2022/04/22 06:55:58;;;;;;;9.05;5.53;;;9.70;99.90;;;;;;5123697;27;20118;-78
2022/04/22 06:58:26;;;;;;;7.05;5.28;;;9.70;99.90;;;;;;5115260;27;20126;-78
2022/04/22 07:00:53;;;;;;;10.85;5.57;;;9.80;99.90;;;;;;5102869;27;20051;-78
2022/04/22 07:03:19;;;;;;;8.50;5.82;;;9.90;99.90;;;;;;5108809;27;20051;-76
2022/04/22 07:05:47;;;;;;;8.45;5.50;;;9.90;99.90;;;;;;5124526;27;20047;-77
2022/04/22 07:08:14;;;;;;;10.18;5.72;;;10.00;99.90;;;;;;5088081;28;20054;-77
2022/04/22 07:10:41;;;;;;;8.52;5.40;;;10.10;99.90;;;;;;5090533;27;20513;-76
2022/04/22 07:13:08;;;;;;;7.10;5.35;;;10.20;99.90;;;;;;5112839;27;20054;-78
2022/04/22 07:15:35;;;;;;;7.80;5.18;;;10.20;99.90;;;;;;5108982;27;20058;-79
2022/04/22 07:18:01;;;;;;;9.52;5.68;;;10.40;99.90;;;;;;5100262;27;20058;-78
2022/04/22 07:20:28;;;;;;;7.25;4.85;;;10.40;99.90;;;;;;5128991;27;20050;-73
2022/04/22 07:22:54;;;;;;;7.53;5.00;;;10.50;99.90;;;;;;5095421;27;20124;-79
2022/04/22 07:25:21;;;;;;;8.23;4.60;;;10.60;99.90;;;;;;5111638;27;20520;-77
2022/04/22 07:27:48;;;;;;;9.07;4.43;;;10.70;99.90;;;;;;5125388;27;20489;-76
2022/04/22 07:30:17;;;;;;;7.20;4.55;;;10.70;99.90;;;;;;5129638;27;20122;-78
2022/04/22 07:32:47;;;;;;;8.90;5.00;;;10.70;99.90;;;;;;5147528;27;20442;-79
2022/04/22 07:35:15;;;;;;;6.47;4.28;;;10.90;99.90;;;;;;5147376;27;20347;-77
2022/04/22 07:37:46;;;;;;;7.32;4.45;;;11.00;99.90;;;;;;5128490;27;20046;-81
2022/04/22 07:40:13;;;;;;;7.60;4.28;;;11.10;99.90;;;;;;5128594;27;20546;-81
2022/04/22 07:46:46;;;;;;;6.07;3.35;;;11.20;99.90;;;;;;5111232;27;20051;-80
2022/04/22 07:48:17;;;;;;;4.80;3.63;;;11.30;99.90;;;;;;5128938;27;20078;-81
2022/04/22 07:50:44;;;;;;;6.68;3.45;;;11.40;99.90;;;;;;5128752;27;20174;-82
2022/04/22 07:53:10;;;;;;;6.60;3.60;;;11.50;99.90;;;;;;5110839;27;20409;-81
2022/04/22 07:55:36;;;;;;;5.43;3.80;;;11.70;99.90;;;;;;5086005;27;20047;-78
2022/04/22 07:58:06;;;;;;;5.18;3.42;;;11.80;99.90;;;;;;5121438;27;20045;-76
2022/04/22 08:00:37;;;;;;;7.20;3.10;;;11.80;99.90;;;;;;5106496;27;20548;-79
2022/04/22 08:03:06;;;;;;;4.78;3.15;;;12.00;99.90;;;;;;5111160;27;20039;-78
2022/04/22 08:05:37;;;;;;;4.43;2.90;;;12.10;99.90;;;;;;5112284;27;20051;-80
2022/04/22 08:08:05;;;;;;;6.70;3.38;;;12.20;99.90;;;;;;5107964;27;20381;-82
2022/04/22 08:10:31;;;;;;;7.38;3.15;;;12.30;99.90;;;;;;5128891;27;20047;-76
2022/04/22 08:12:57;;;;;;;6.38;3.53;;;12.40;99.90;;;;;;5147147;27;20424;-80
2022/04/22 08:15:22;;;;;;;5.35;3.13;;;12.40;99.90;;;;;;5092572;27;20054;-80
2022/04/22 08:17:48;;;;;;;6.32;3.28;;;12.50;99.90;;;;;;5072715;27;20386;-78
2022/04/22 08:20:14;;;;;;;7.38;3.20;;;12.70;99.90;;;;;;5107967;27;20488;-81
2022/04/22 08:22:43;;;;;;;4.72;3.00;;;12.80;99.90;;;;;;5125009;27;20254;-79
2022/04/22 08:25:09;;;;;;;5.63;3.17;;;12.90;99.90;;;;;;5107003;27;20539;-79
2022/04/22 08:27:35;;;;;;;4.45;2.55;;;12.90;98.30;;;;;;5110130;27;20397;-78
2022/04/22 08:30:01;;;;;;;5.03;3.00;;;12.90;98.40;;;;;;5125693;27;20487;-78
2022/04/22 08:32:27;;;;;;;4.93;2.88;;;13.00;99.50;;;;;;5108014;27;20047;-81
2022/04/22 08:34:53;;;;;;;4.78;3.33;;;13.10;99.10;;;;;;5078415;27;20385;-78
2022/04/22 08:37:19;;;;;;;4.60;2.65;;;13.20;98.50;;;;;;5094869;27;20492;-77
2022/04/22 08:39:45;;;;;;;6.80;3.22;;;13.30;96.70;;;;;;5093882;27;20051;-78
2022/04/22 08:42:15;;;;;;;7.45;2.70;;;13.30;97.10;;;;;;5129418;27;20553;-76
2022/04/22 08:44:41;;;;;;;4.15;2.90;;;13.40;95.50;;;;;;5110207;27;20624;-78
2022/04/22 08:50:09;;;;;;;7.57;2.83;;;13.60;97.30;;;;;;5127950;27;20046;-78
2022/04/22 08:52:36;;;;;;;5.80;2.95;;;13.70;97.60;;;;;;5124697;27;20084;-79
2022/04/22 08:55:10;;;;;;;6.40;3.33;;;13.80;96.30;;;;;;5106635;27;20096;-78
2022/04/22 08:57:36;;;;;;;5.15;3.03;;;14.00;95.20;;;;;;5092258;27;20061;-79
2022/04/22 09:00:07;;;;;;;5.32;3.10;;;14.10;94.00;;;;;;5107299;27;20051;-78
2022/04/22 09:02:37;;;;;;;5.38;2.63;;;14.10;94.20;;;;;;5126248;27;20487;-79
2022/04/22 09:05:03;;;;;;;4.90;2.78;;;14.10;93.90;;;;;;5088829;27;20063;-76
2022/04/22 09:07:30;;;;;;;5.35;2.75;;;14.30;90.90;;;;;;5094778;27;20045;-80
2022/04/22 09:09:56;;;;;;;5.03;2.80;;;14.30;90.00;;;;;;5121249;27;20035;-81
2022/04/22 09:12:24;;;;;;;5.47;3.05;;;14.30;91.20;;;;;;5072831;27;20833;-81
2022/04/22 09:14:56;;;;;;;5.47;3.40;;;14.40;90.70;;;;;;5124303;27;20054;-77
2022/04/22 09:18:00;;;;;;;7.50;2.92;;;14.50;91.60;;;;;;5117734;27;20566;-83
2022/04/22 09:20:30;;;;;;;6.22;3.20;;;14.50;91.30;;;;;;5117908;27;20035;-81
2022/04/22 09:22:57;;;;;;;4.95;2.90;;;14.60;90.30;;;;;;5089822;27;20043;-82
2022/04/22 09:25:25;;;;;;;4.75;2.67;;;14.80;89.60;;;;;;5103447;27;20110;-79
2022/04/22 09:27:51;;;;;;;7.13;3.03;;;14.90;88.90;;;;;;5127773;27;20081;-79
2022/04/22 09:30:17;;;;;;;6.38;3.00;;;15.10;84.80;;;;;;5124098;27;20508;-79
2022/04/22 09:32:45;;;;;;;4.95;2.88;;;15.10;84.50;;;;;;5113619;27;20053;-80
2022/04/22 09:35:16;;;;;;;5.15;2.75;;;15.10;84.30;;;;;;5132005;27;20137;-77
2022/04/22 09:43:45;;;;;;;5.82;2.85;;;15.20;79.40;;;;;;5129072;27;20456;-82
2022/04/22 09:46:24;;;;;;;3.92;2.65;;;15.40;80.60;;;;;;5111549;27;20043;-80
2022/04/22 09:48:52;;;;;;;5.23;2.63;;;15.60;78.70;;;;;;5114032;27;20069;-79
2022/04/22 09:51:30;;;;;;;5.47;2.47;;;15.60;74.80;;;;;;5114454;27;20107;-82
2022/04/22 09:54:07;;;;;;;5.82;2.60;;;15.80;77.00;;;;;;5145655;27;20457;-79
2022/04/22 09:56:41;;;;;;;6.32;2.58;;;15.90;73.80;;;;;;5142210;27;20459;-79
2022/04/22 09:59:32;;;;;;;7.07;2.72;;;15.90;70.90;;;;;;5120842;27;20119;-78
2022/04/22 10:02:00;;;;;;;6.53;3.05;;;15.90;71.10;;;;;;5102414;27;20130;-80
2022/04/22 10:04:27;;;;;;;5.82;3.00;;;16.00;71.60;;;;;;5106884;27;20098;-80
2022/04/22 10:06:54;;;;;;;7.40;3.03;;;16.00;74.80;;;;;;5111288;27;20096;-80
2022/04/22 10:09:22;;;;;;;4.55;2.65;;;16.00;71.10;;;;;;5094510;27;20043;-78
2022/04/22 10:11:48;;;;;;;6.47;2.60;;;16.10;71.60;;;;;;5128482;27;20126;-76
2022/04/22 10:14:17;;;;;;;6.18;2.85;;;16.20;70.70;;;;;;5125050;27;20574;-77
2022/04/22 10:16:44;;;;;;;5.70;2.92;;;16.20;68.30;;;;;;5116513;27;20044;-76
2022/04/22 10:19:10;;;;;;;5.55;3.00;;;16.10;68.10;;;;;;5100003;27;20357;-81
2022/04/22 10:21:39;;;;;;;8.00;3.22;;;16.10;68.80;;;;;;5116419;27;20441;-79
2022/04/22 10:24:06;;;;;;;4.90;3.13;;;16.00;71.00;;;;;;5102158;27;20042;-77
2022/04/22 10:26:36;;;;;;;6.18;3.15;;;16.00;70.40;;;;;;5103387;27;20046;-75
2022/04/22 10:29:04;;;;;;;6.82;3.15;;;16.00;74.10;;;;;;5104188;27;20043;-80
2022/04/22 10:31:30;;;;;;;6.18;3.28;;;16.30;71.10;;;;;;5124421;27;20496;-75
2022/04/22 10:34:06;;;;;;;6.50;3.08;;;16.40;73.40;;;;;;5090201;27;20118;-76
2022/04/22 10:36:38;;;;;;;6.10;3.55;;;16.50;72.10;;;;;;5121464;27;20042;-81
2022/04/22 10:39:04;;;;;;;6.35;3.72;;;16.50;70.10;;;;;;5107028;27;20531;-80
2022/04/22 10:41:44;;;;;;;5.40;3.30;;;16.40;72.10;;;;;;5121487;27;20085;-78
2022/04/22 10:47:13;;;;;;;6.80;3.88;;;16.60;74.00;;;;;;5127694;27;19934;-81
2022/04/22 10:49:40;;;;;;;6.43;3.75;;;16.50;71.30;;;;;;5111680;27;20165;-82
2022/04/22 10:52:17;;;;;;;5.57;3.10;;;16.50;71.30;;;;;;5122670;27;20053;-81
2022/04/22 10:54:52;;;;;;;7.90;3.60;;;16.50;73.20;;;;;;5123558;27;20050;-80
2022/04/22 10:57:20;;;;;;;5.97;3.30;;;16.80;71.90;;;;;;5103437;27;20661;-79
2022/04/22 11:00:00;;;;;;;7.20;3.13;;;16.90;69.30;;;;;;5118814;27;20038;-78
2022/04/22 11:02:30;;;;;;;5.93;3.92;;;17.00;65.00;;;;;;5122272;27;20195;-80
2022/04/22 11:05:18;;;;;;;5.32;3.50;;;17.10;65.10;;;;;;5110023;27;20050;-82
2022/04/22 11:07:50;;;;;;;6.57;3.35;;;17.10;66.50;;;;;;5128585;27;20054;-82
2022/04/22 11:10:48;;;;;;;4.72;3.15;;;17.10;69.10;;;;;;5145782;27;20043;-80
2022/04/22 11:13:43;;;;;;;7.63;3.50;;;17.10;68.80;;;;;;5114788;27;20057;-81
2022/04/22 11:16:30;;;;;;;6.18;3.63;;;17.10;65.10;;;;;;5144303;27;20404;-80
2022/04/22 11:19:29;;;;;;;7.32;3.85;;;17.20;63.10;;;;;;5105831;27;20085;-80
2022/04/22 11:21:57;;;;;;;6.38;3.92;;;17.30;63.70;;;;;;5066426;27;20091;-74
2022/04/22 11:24:26;;;;;;;7.20;3.92;;;17.30;63.80;;;;;;5091677;27;20325;-80
2022/04/22 11:27:14;;;;;;;7.47;3.78;;;17.50;65.70;;;;;;5124178;27;20046;-82
2022/04/22 11:29:41;;;;;;;6.45;3.67;;;17.50;60.70;;;;;;5107750;27;20506;-79
2022/04/22 11:32:21;;;;;;;7.90;4.25;;;17.50;62.10;;;;;;5106437;27;20126;-81
2022/04/22 11:34:47;;;;;;;;;;;17.50;62.70;;;;;;5127169;27;20043;-80
2022/04/22 11:37:18;;;;;;;6.18;4.30;;;17.50;64.50;;;;;;5118821;27;20495;-82
2022/04/22 11:39:47;;;;;;;6.15;3.80;;;17.60;66.50;;;;;;5105028;27;20130;-80
2022/04/22 11:42:15;;;;;;;7.22;4.20;;;17.70;64.10;;;;;;5123424;27;20039;-77
2022/04/22 11:44:42;;;;;;;5.63;4.18;;;17.80;63.30;;;;;;5119549;27;20135;-77
2022/04/22 11:47:08;;;;;;;8.38;4.70;;;17.80;63.90;;;;;;5110816;27;20835;-81
2022/04/22 11:49:34;;;;;;;6.45;4.30;;;17.90;64.80;;;;;;5074217;27;20219;-80
2022/04/22 11:52:00;;;;;;;6.80;4.32;;;17.90;62.50;;;;;;5104721;27;20034;-81
2022/04/22 11:54:26;;;;;;;6.13;4.22;;;17.80;60.70;;;;;;5107055;27;20049;-78
2022/04/22 11:56:53;;;;;;;6.05;3.85;;;17.80;61.20;;;;;;5108723;27;20044;-82
2022/04/22 11:59:20;;;;;;;5.65;3.67;;;17.80;61.90;;;;;;5122323;27;20039;-81
2022/04/22 12:05:32;;;;;;;5.50;3.97;;;18.00;62.00;;;;;;5119238;27;20061;-78
2022/04/22 12:10:13;;;;;;;8.05;4.78;;;17.90;61.20;;;;;;5097185;27;20053;-80
2022/04/22 12:12:48;;;;;;;6.43;4.50;;;18.00;61.60;;;;;;5122580;27;20058;-74
2022/04/22 12:15:18;;;;;;;6.72;4.40;;;18.10;61.70;;;;;;5125174;27;20548;-81
2022/04/22 12:17:45;;;;;;;6.68;4.47;;;18.20;61.10;;;;;;5119473;27;20251;-80
2022/04/22 12:20:11;;;;;;;6.70;4.53;;;18.20;61.90;;;;;;5083882;27;20556;-78
2022/04/22 12:22:37;;;;;;;6.78;4.15;;;18.30;59.60;;;;;;5111866;27;20061;-78
2022/04/22 12:25:10;;;;;;;7.55;4.30;;;18.30;57.70;;;;;;5104358;27;20537;-80
2022/04/22 12:27:38;;;;;;;7.18;3.80;;;18.20;58.00;;;;;;5107952;27;20104;-75
2022/04/22 12:30:04;;;;;;;7.93;4.72;;;18.10;58.40;;;;;;5111763;27;20055;-76
2022/04/22 12:32:31;;;;;;;5.90;3.85;;;18.20;58.60;;;;;;5098983;27;20096;-77
2022/04/22 12:35:10;;;;;;;8.65;5.72;;;18.20;59.00;;;;;;5085631;27;20070;-79
2022/04/22 12:37:36;;;;;;;7.75;4.50;;;18.10;58.60;;;;;;5098974;27;20483;-77
2022/04/22 12:40:10;;;;;;;7.40;4.60;;;18.10;57.70;;;;;;5096724;27;20200;-80
2022/04/22 12:42:36;;;;;;;7.10;4.43;;;18.10;59.30;;;;;;5116525;27;20111;-79
2022/04/22 12:53:41;;;;;;;6.82;5.18;;;18.60;56.90;;;;;;5110104;27;20043;-81
2022/04/22 12:56:09;;;;;;;7.80;6.00;;;18.50;56.90;;;;;;5107279;27;20074;-76
2022/04/22 12:58:51;;;;;;;6.63;5.50;;;18.40;57.50;;;;;;5092308;27;20047;-81
2022/04/22 13:01:24;;;;;;;7.03;4.57;;;18.30;57.20;;;;;;5091836;27;20104;-79
2022/04/22 13:03:50;;;;;;;7.95;4.82;;;18.10;58.90;;;;;;5088593;27;20051;-80
2022/04/22 13:06:45;;;;;;;7.68;5.05;;;18.10;58.60;;;;;;5099702;27;20043;-81
2022/04/22 13:09:12;;;;;;;8.18;5.35;;;18.20;59.60;;;;;;5101675;27;20692;-79
2022/04/22 13:11:39;;;;;;;8.65;6.20;;;18.10;59.10;;;;;;5085561;27;20059;-76
2022/04/22 13:14:06;;;;;;;7.07;5.45;;;18.10;59.30;;;;;;5120312;27;20129;-80
2022/04/22 13:16:36;;;;;;;11.05;6.85;;;18.10;59.70;;;;;;5120269;28;20046;-81
2022/04/22 13:19:03;;;;;;;10.52;6.25;;;18.20;60.50;;;;;;5128683;27;20058;-80
2022/04/22 13:21:29;;;;;;;9.63;6.43;;;18.40;60.70;;;;;;5106517;27;20039;-84
2022/04/22 13:23:56;;;;;;;12.45;6.95;;;18.50;59.00;;;;;;5105394;27;20300;-77
2022/04/22 13:26:23;;;;;;;9.80;6.10;;;18.40;59.30;;;;;;5123254;27;20438;-80
2022/04/22 13:28:49;;;;;;;8.48;6.30;;;18.40;59.20;;;;;;5122345;27;20081;-77
2022/04/22 13:31:16;;;;;;;8.27;6.38;;;18.50;59.60;;;;;;5123228;27;20038;-81
2022/04/22 13:33:41;;;;;;;11.52;6.63;;;18.60;59.80;;;;;;5070927;27;20327;-81
2022/04/22 13:36:10;;;;;;;7.85;6.20;;;18.90;60.20;;;;;;5123187;27;20053;-80
2022/04/22 13:38:37;;;;;;;10.57;6.63;;;19.10;59.50;;;;;;5141190;27;20054;-74
2022/04/22 13:41:05;;;;;;;9.15;6.53;;;19.10;56.90;;;;;;5122931;27;20047;-77
2022/04/22 13:43:35;;;;;;;9.23;7.18;;;18.90;58.20;;;;;;5123145;27;20134;-81
2022/04/22 13:54:18;;;;;;;9.60;6.57;;;19.00;60.00;;;;;;5101716;27;20079;-76
2022/04/22 13:56:46;;;;;;;9.55;7.00;;;19.10;58.60;;;;;;5118184;27;20051;-79
2022/04/22 13:59:12;;;;;;;9.77;7.50;;;19.10;60.20;;;;;;5096009;27;20447;-79
2022/04/22 14:01:38;;;;;;;8.27;7.05;;;19.10;58.50;;;;;;5086267;27;20042;-75
2022/04/22 14:04:04;;;;;;;9.80;6.85;;;19.10;58.30;;;;;;5085712;27;20117;-72